createdAt,value
2019-02-19T00:01:37.368Z,100601.73
2019-02-19T00:04:06.270Z,100596.16
2019-02-19T00:06:33.394Z,100589.73
2019-02-19T00:09:01.720Z,100590.53
2019-02-19T00:11:31.107Z,100583.58
2019-02-19T00:13:58.046Z,100579.52
2019-02-19T00:16:25.199Z,100577.02
2019-02-19T00:18:54.249Z,100567.50
2019-02-19T00:21:21.241Z,100571.34
2019-02-19T00:23:49.091Z,100567.44
2019-02-19T00:26:17.122Z,100568.37
2019-02-19T00:28:53.766Z,100563.86
2019-02-19T00:31:20.456Z,100563.05
2019-02-19T00:33:48.150Z,100564.02
2019-02-19T00:36:14.926Z,100558.34
2019-02-19T00:38:41.699Z,100561.48
2019-02-19T00:41:14.563Z,100561.20
2019-02-19T00:43:41.487Z,100563.47
2019-02-19T00:46:11.787Z,100555.44
2019-02-19T00:48:38.919Z,100554.34
2019-02-19T00:51:05.849Z,100554.53
2019-02-19T00:53:35.875Z,100556.30
2019-02-19T00:56:03.579Z,100551.80
2019-02-19T00:58:31.076Z,100557.31
2019-02-19T01:00:58.671Z,100554.11
2019-02-19T01:03:25.697Z,100546.63
2019-02-19T01:05:52.867Z,100546.11
2019-02-19T01:08:20.147Z,100542.88
2019-02-19T01:10:46.841Z,100549.91
2019-02-19T01:13:14.526Z,100543.06
2019-02-19T01:15:41.875Z,100544.72
2019-02-19T01:18:09.844Z,100546.70
2019-02-19T01:20:37.026Z,100542.98
2019-02-19T01:23:04.064Z,100540.77
2019-02-19T01:25:31.359Z,100542.02
2019-02-19T01:27:59.458Z,100546.25
2019-02-19T01:30:26.487Z,100542.91
2019-02-19T01:32:54.166Z,100545.02
2019-02-19T01:35:21.547Z,100542.35
2019-02-19T01:37:49.067Z,100543.85
2019-02-19T01:40:16.129Z,100539.38
2019-02-19T01:42:43.304Z,100534.08
2019-02-19T01:45:10.590Z,100530.20
2019-02-19T01:47:37.377Z,100529.88
2019-02-19T01:50:07.633Z,100534.61
2019-02-19T01:52:35.980Z,100528.78
2019-02-19T01:55:10.866Z,100530.16
2019-02-19T01:57:37.799Z,100518.02
2019-02-19T02:00:04.988Z,100516.79
2019-02-19T02:02:33.758Z,100513.09
2019-02-19T02:05:01.625Z,100519.05
2019-02-19T02:07:40.899Z,100513.86
2019-02-19T02:10:07.925Z,100506.88
2019-02-19T02:12:34.695Z,100505.23
2019-02-19T02:15:01.907Z,100507.64
2019-02-19T02:17:29.490Z,100503.27
2019-02-19T02:19:56.939Z,100503.04
2019-02-19T02:22:24.706Z,100496.41
2019-02-19T02:24:51.751Z,100500.02
2019-02-19T02:27:18.974Z,100506.78
2019-02-19T02:29:45.674Z,100503.58
2019-02-19T02:32:12.769Z,100494.99
2019-02-19T02:34:39.810Z,100497.79
2019-02-19T02:37:06.583Z,100502.53
2019-02-19T02:39:33.279Z,100495.39
2019-02-19T02:42:08.047Z,100495.30
2019-02-19T02:44:34.999Z,100497.55
2019-02-19T02:47:02.238Z,100499.19
2019-02-19T02:49:28.977Z,100499.37
2019-02-19T02:51:56.127Z,100497.79
2019-02-19T02:54:22.914Z,100501.83
2019-02-19T02:56:50.855Z,100497.80
2019-02-19T02:59:17.636Z,100495.38
2019-02-19T03:01:45.215Z,100489.34
2019-02-19T03:04:11.927Z,100488.99
2019-02-19T03:06:52.524Z,100493.25
2019-02-19T03:09:19.220Z,100501.34
2019-02-19T03:11:53.188Z,100497.83
2019-02-19T03:14:29.018Z,100500.50
2019-02-19T03:16:55.723Z,100507.12
2019-02-19T03:19:22.916Z,100506.55
2019-02-19T03:21:50.824Z,100507.09
2019-02-19T03:24:29.734Z,100512.81
2019-02-19T03:26:57.174Z,100517.66
2019-02-19T03:29:24.092Z,100511.57
2019-02-19T03:31:51.588Z,100513.02
2019-02-19T03:34:19.366Z,100514.44
2019-02-19T03:36:47.011Z,100507.41
2019-02-19T03:39:14.015Z,100507.25
2019-02-19T03:41:40.765Z,100508.05
2019-02-19T03:44:08.098Z,100512.95
2019-02-19T03:46:35.352Z,100512.38
2019-02-19T03:49:02.722Z,100517.63
2019-02-19T03:51:30.307Z,100513.02
2019-02-19T03:53:57.559Z,100510.36
2019-02-19T03:56:24.883Z,100510.67
2019-02-19T03:58:51.670Z,100515.77
2019-02-19T04:01:18.856Z,100506.52
2019-02-19T04:03:46.677Z,100507.31
2019-02-19T04:06:13.911Z,100517.63
2019-02-19T04:08:41.684Z,100520.76
2019-02-19T04:11:09.959Z,100522.16
2019-02-19T04:13:36.634Z,100520.44
2019-02-19T04:16:21.123Z,100514.71
2019-02-19T04:18:43.730Z,100515.22
2019-02-19T04:21:11.426Z,100520.98
2019-02-19T04:23:56.793Z,100531.67
2019-02-19T04:26:26.975Z,100530.39
2019-02-19T04:28:53.642Z,100526.14
2019-02-19T04:31:31.754Z,100512.63
2019-02-19T04:33:58.477Z,100518.58
2019-02-19T04:36:25.137Z,100523.50
2019-02-19T04:39:04.451Z,100526.42
2019-02-19T04:41:33.805Z,100522.45
2019-02-19T04:44:00.860Z,100520.27
2019-02-19T04:46:31.497Z,100520.22
2019-02-19T04:48:56.912Z,100515.16
2019-02-19T04:51:23.582Z,100519.52
2019-02-19T04:53:51.022Z,100523.77
2019-02-19T04:56:17.694Z,100530.33
2019-02-19T04:58:44.852Z,100527.41
2019-02-19T05:01:11.632Z,100523.72
2019-02-19T05:03:39.698Z,100462.65
2019-02-19T05:06:07.217Z,100516.14
2019-02-19T05:08:35.654Z,100521.89
2019-02-19T05:11:02.668Z,100518.70
2019-02-19T05:13:29.346Z,100524.63
2019-02-19T05:15:57.102Z,100523.20
2019-02-19T05:18:25.354Z,100525.45
2019-02-19T05:20:53.236Z,100522.48
2019-02-19T05:23:20.409Z,100518.46
2019-02-19T05:25:47.627Z,100514.01
2019-02-19T05:28:15.275Z,100513.52
2019-02-19T05:30:43.092Z,100519.77
2019-02-19T05:33:10.358Z,100526.91
2019-02-19T05:35:37.435Z,100521.69
2019-02-19T05:38:04.201Z,100521.82
2019-02-19T05:40:31.735Z,100522.06
2019-02-19T05:42:58.678Z,100522.20
2019-02-19T05:45:26.398Z,100528.05
2019-02-19T05:47:53.687Z,100521.06
2019-02-19T05:50:20.758Z,100522.92
2019-02-19T05:52:48.189Z,100525.56
2019-02-19T05:55:14.994Z,100524.75
2019-02-19T05:57:41.672Z,100521.16
2019-02-19T06:00:13.171Z,100521.92
2019-02-19T06:02:40.394Z,100518.81
2019-02-19T06:05:12.574Z,100521.54
2019-02-19T06:07:39.735Z,100527.14
2019-02-19T06:10:12.033Z,100524.90
2019-02-19T06:12:38.835Z,100519.75
2019-02-19T06:15:06.254Z,100532.75
2019-02-19T06:17:33.880Z,100535.00
2019-02-19T06:20:01.306Z,100540.08
2019-02-19T06:22:28.833Z,100546.93
2019-02-19T06:24:55.540Z,100539.47
2019-02-19T06:27:22.334Z,100544.11
2019-02-19T06:29:53.029Z,100549.67
2019-02-19T06:32:20.229Z,100546.56
2019-02-19T06:34:47.242Z,100555.42
2019-02-19T06:37:14.028Z,100562.63
2019-02-19T06:39:40.685Z,100561.75
2019-02-19T06:42:08.001Z,100570.48
2019-02-19T06:44:35.252Z,100574.61
2019-02-19T06:47:06.956Z,100576.13
2019-02-19T06:49:31.433Z,100576.33
2019-02-19T06:51:58.711Z,100572.64
2019-02-19T06:54:25.634Z,100581.22
2019-02-19T06:56:53.133Z,100580.22
2019-02-19T06:59:20.624Z,100589.27
2019-02-19T07:02:00.910Z,100588.27
2019-02-19T07:04:32.288Z,100586.68
2019-02-19T07:06:59.379Z,100587.06
2019-02-19T07:09:26.587Z,100587.69
2019-02-19T07:11:53.531Z,100585.30
2019-02-19T07:14:20.655Z,100588.79
2019-02-19T07:16:48.023Z,100593.02
2019-02-19T07:19:14.981Z,100586.92
2019-02-19T07:21:42.669Z,100599.97
2019-02-19T07:24:10.348Z,100600.58
2019-02-19T07:26:37.502Z,100606.78
2019-02-19T07:29:04.814Z,100596.22
2019-02-19T07:31:32.081Z,100602.39
2019-02-19T07:33:58.781Z,100605.84
2019-02-19T07:36:25.695Z,100604.31
2019-02-19T07:38:53.234Z,100613.34
2019-02-19T07:41:20.284Z,100610.70
2019-02-19T07:43:47.755Z,100611.13
2019-02-19T07:46:14.846Z,100605.80
2019-02-19T07:48:41.824Z,100609.93
2019-02-19T07:51:08.524Z,100611.77
2019-02-19T07:53:35.782Z,100606.80
2019-02-19T07:56:26.991Z,100614.38
2019-02-19T07:58:56.426Z,100613.57
2019-02-19T08:01:23.588Z,100602.59
2019-02-19T08:03:53.930Z,100609.55
2019-02-19T08:06:22.165Z,100613.34
2019-02-19T08:08:49.327Z,100616.27
2019-02-19T08:11:17.025Z,100618.41
2019-02-19T08:13:43.694Z,100621.53
2019-02-19T08:16:10.379Z,100622.74
2019-02-19T08:18:38.268Z,100624.27
2019-02-19T08:21:06.130Z,100619.53
2019-02-19T08:23:34.283Z,100633.97
2019-02-19T08:26:01.862Z,100624.21
2019-02-19T08:28:28.706Z,100619.32
2019-02-19T08:30:55.880Z,100628.20
2019-02-19T08:33:23.178Z,100635.69
2019-02-19T08:35:50.420Z,100634.19
2019-02-19T08:38:17.601Z,100637.19
2019-02-19T08:40:44.525Z,100635.67
2019-02-19T08:43:12.098Z,100639.13
2019-02-19T08:45:40.144Z,100637.55
2019-02-19T08:48:07.840Z,100649.80
2019-02-19T08:50:34.960Z,100647.44
2019-02-19T08:53:02.235Z,100653.20
2019-02-19T08:55:29.059Z,100648.07
2019-02-19T08:57:56.710Z,100656.42
2019-02-19T09:00:24.026Z,100648.35
2019-02-19T09:02:51.263Z,100658.19
2019-02-19T09:05:18.292Z,100656.70
2019-02-19T09:07:44.955Z,100651.42
2019-02-19T09:10:12.468Z,100650.84
2019-02-19T09:12:40.791Z,100660.97
2019-02-19T09:15:11.116Z,100657.84
2019-02-19T09:17:39.351Z,100657.55
2019-02-19T09:20:06.811Z,100657.64
2019-02-19T09:22:34.028Z,100665.61
2019-02-19T09:25:01.284Z,100670.02
2019-02-19T09:27:28.967Z,100662.48
2019-02-19T09:29:55.897Z,100661.70
2019-02-19T09:32:24.209Z,100655.23
2019-02-19T09:34:52.648Z,100663.27
2019-02-19T09:37:19.738Z,100663.84
2019-02-19T09:39:47.693Z,100653.07
2019-02-19T09:42:15.545Z,100673.09
2019-02-19T09:44:43.016Z,100667.03
2019-02-19T09:47:11.823Z,100660.41
2019-02-19T09:49:39.060Z,100658.27
2019-02-19T09:52:06.423Z,100660.41
2019-02-19T09:54:33.119Z,100660.31
2019-02-19T09:57:00.504Z,100656.41
2019-02-19T09:59:27.955Z,100650.63
2019-02-19T10:01:55.196Z,100647.06
2019-02-19T10:04:22.865Z,100666.88
2019-02-19T10:06:50.380Z,100655.89
2019-02-19T10:09:17.336Z,100650.72
2019-02-19T10:11:44.323Z,100658.47
2019-02-19T10:14:11.091Z,100652.91
2019-02-19T10:16:41.538Z,100648.55
2019-02-19T10:19:08.035Z,100648.34
2019-02-19T10:21:34.795Z,100640.59
2019-02-19T10:24:02.263Z,100647.31
2019-02-19T10:26:29.724Z,100649.81
2019-02-19T10:28:57.953Z,100648.66
2019-02-19T10:31:25.091Z,100642.22
2019-02-19T10:33:51.937Z,100651.08
2019-02-19T10:36:18.874Z,100662.33
2019-02-19T10:38:45.940Z,100643.61
2019-02-19T10:41:12.636Z,100635.89
2019-02-19T10:43:40.756Z,100635.31
2019-02-19T10:46:10.753Z,100624.22
2019-02-19T10:48:39.512Z,100643.34
2019-02-19T10:51:26.215Z,100643.83
2019-02-19T10:53:53.752Z,100653.89
2019-02-19T10:56:21.869Z,100649.88
2019-02-19T10:58:50.053Z,100645.66
2019-02-19T11:01:17.773Z,100667.06
2019-02-19T11:03:45.198Z,100669.42
2019-02-19T11:06:11.899Z,100664.53
2019-02-19T11:08:39.228Z,100670.59
2019-02-19T11:11:07.478Z,100659.94
2019-02-19T11:13:34.767Z,100667.64
2019-02-19T11:16:03.474Z,100664.27
2019-02-19T11:18:31.033Z,100665.55
2019-02-19T11:20:58.292Z,100653.92
2019-02-19T11:23:26.787Z,100651.43
2019-02-19T11:25:55.887Z,100650.30
2019-02-19T11:28:23.177Z,100653.83
2019-02-19T11:30:50.226Z,100664.27
2019-02-19T11:33:17.455Z,100661.08
2019-02-19T11:35:44.144Z,100649.38
2019-02-19T11:38:11.471Z,100643.58
2019-02-19T11:40:38.838Z,100654.74
2019-02-19T11:43:06.721Z,100650.08
2019-02-19T11:45:33.511Z,100653.30
2019-02-19T11:48:00.294Z,100651.19
2019-02-19T11:50:27.978Z,100649.39
2019-02-19T11:52:55.624Z,100656.03
2019-02-19T11:55:23.018Z,100641.51
2019-02-19T11:57:49.778Z,100646.95
2019-02-19T12:00:20.826Z,100646.44
2019-02-19T12:02:48.310Z,100644.33
2019-02-19T12:05:15.074Z,100659.45
2019-02-19T12:07:42.929Z,100657.21
2019-02-19T12:10:11.904Z,100651.22
2019-02-19T12:12:39.255Z,100658.53
2019-02-19T12:15:07.064Z,100649.02
2019-02-19T12:17:34.327Z,100650.52
2019-02-19T12:20:01.630Z,100653.02
2019-02-19T12:22:28.533Z,100654.27
2019-02-19T12:24:55.649Z,100656.55
2019-02-19T12:27:23.203Z,100651.83
2019-02-19T12:29:50.350Z,100653.63
2019-02-19T12:32:18.016Z,100669.61
2019-02-19T12:34:45.695Z,100666.16
2019-02-19T12:37:13.046Z,100665.16
2019-02-19T12:39:40.804Z,100659.77
2019-02-19T12:42:07.483Z,100662.27
2019-02-19T12:44:35.306Z,100658.75
2019-02-19T12:47:02.007Z,100661.00
2019-02-19T12:49:29.918Z,100664.62
2019-02-19T12:51:56.699Z,100660.87
2019-02-19T12:54:24.013Z,100662.73
2019-02-19T12:56:51.779Z,100662.79
2019-02-19T12:59:18.802Z,100659.30
2019-02-19T13:01:45.598Z,100659.38
2019-02-19T13:04:13.219Z,100665.14
2019-02-19T13:06:40.485Z,100664.05
2019-02-19T13:09:08.617Z,100655.31
2019-02-19T13:11:36.618Z,100666.94
2019-02-19T13:14:04.384Z,100660.17
2019-02-19T13:16:31.425Z,100668.03
2019-02-19T13:19:03.593Z,100665.38
2019-02-19T13:21:27.985Z,100665.83
2019-02-19T13:23:55.072Z,100668.77
2019-02-19T13:26:22.581Z,100666.57
2019-02-19T13:28:49.778Z,100665.56
2019-02-19T13:31:17.210Z,100667.77
2019-02-19T13:33:44.321Z,100668.93
2019-02-19T13:36:11.445Z,100672.30
2019-02-19T13:38:38.370Z,100673.77
2019-02-19T13:41:05.784Z,100677.23
2019-02-19T13:43:33.555Z,100674.63
2019-02-19T13:46:01.409Z,100678.75
2019-02-19T13:48:28.722Z,100681.69
2019-02-19T13:50:55.614Z,100674.97
2019-02-19T13:53:28.278Z,100683.30
2019-02-19T13:55:56.954Z,100671.64
2019-02-19T13:58:24.017Z,100678.88
2019-02-19T14:00:51.346Z,100677.71
2019-02-19T14:03:18.369Z,100673.88
2019-02-19T14:05:46.655Z,100672.53
2019-02-19T14:08:15.732Z,100679.59
2019-02-19T14:10:43.845Z,100690.75
2019-02-19T14:13:11.550Z,100687.05
2019-02-19T14:15:44.798Z,100686.77
2019-02-19T14:18:14.574Z,100683.89
2019-02-19T14:20:59.601Z,100699.02
2019-02-19T14:24:02.706Z,100697.77
2019-02-19T14:26:57.846Z,100691.06
2019-02-19T14:29:47.778Z,100693.46
2019-02-19T14:32:28.371Z,100694.70
2019-02-19T14:35:20.795Z,100691.34
2019-02-19T14:37:57.547Z,100696.57
2019-02-19T14:40:45.176Z,100703.05
2019-02-19T14:43:25.425Z,100694.41
2019-02-19T14:46:21.054Z,100696.60
2019-02-19T14:49:36.637Z,100697.65
2019-02-19T14:52:01.045Z,100702.70
2019-02-19T14:54:37.419Z,100696.33
2019-02-19T14:57:23.075Z,100697.34
2019-02-19T15:00:08.863Z,100704.20
2019-02-19T15:02:58.884Z,100700.22
2019-02-19T15:05:44.481Z,100704.34
2019-02-19T15:08:31.348Z,100698.97
2019-02-19T15:11:16.422Z,100704.73
2019-02-19T15:14:01.595Z,100706.60
2019-02-19T15:16:39.905Z,100693.65
2019-02-19T15:19:22.445Z,100699.16
2019-02-19T15:22:27.054Z,100695.94
2019-02-19T15:25:12.058Z,100710.42
2019-02-19T15:28:17.323Z,100710.91
2019-02-19T15:30:56.391Z,100717.86
2019-02-19T15:33:52.561Z,100710.38
2019-02-19T15:36:37.858Z,100719.35
2019-02-19T15:39:25.044Z,100720.36
2019-02-19T15:42:11.252Z,100725.83
2019-02-19T15:44:59.160Z,100722.58
2019-02-19T15:48:04.187Z,100713.84
2019-02-19T15:50:49.698Z,100721.67
2019-02-19T15:53:45.293Z,100719.31
2019-02-19T15:56:38.118Z,100728.39
2019-02-19T15:59:28.222Z,100731.79
2019-02-19T16:02:14.815Z,100735.25
2019-02-19T16:04:57.943Z,100738.85
2019-02-19T16:07:33.485Z,100745.14
2019-02-19T16:10:28.690Z,100742.98
2019-02-19T16:13:04.372Z,100739.38
2019-02-19T16:15:53.787Z,100746.09
2019-02-19T16:18:39.155Z,100734.48
2019-02-19T16:21:28.656Z,100748.10
2019-02-19T16:24:27.894Z,100751.95
2019-02-19T16:27:17.670Z,100747.72
2019-02-19T16:30:02.462Z,100755.21
2019-02-19T16:32:54.633Z,100749.21
2019-02-19T16:35:44.482Z,100753.20
2019-02-19T16:38:30.818Z,100753.96
2019-02-19T16:45:30.144Z,100756.03
2019-02-19T16:55:19.097Z,100770.96
2019-02-19T17:00:59.977Z,100776.44
2019-02-19T17:03:43.709Z,100787.43
2019-02-19T17:06:20.316Z,100780.23
2019-02-19T17:08:55.563Z,100787.23
2019-02-19T17:11:51.431Z,100796.06
2019-02-19T17:14:38.909Z,100791.84
2019-02-19T17:17:18.213Z,100804.15
2019-02-19T17:20:03.810Z,100793.33
2019-02-19T17:22:54.521Z,100807.30
2019-02-19T17:25:38.461Z,100805.80
2019-02-19T17:29:05.308Z,100803.69
2019-02-19T17:32:04.450Z,100804.42
2019-02-19T17:34:54.622Z,100801.06
2019-02-19T17:37:38.837Z,100809.69
2019-02-19T17:40:24.961Z,100812.29
2019-02-19T17:43:06.306Z,100811.66
2019-02-19T17:46:28.778Z,100812.56
2019-02-19T17:49:11.675Z,100810.07
2019-02-19T17:51:58.853Z,100816.55
2019-02-19T17:54:51.054Z,100822.55
2019-02-19T17:58:39.346Z,100819.05
2019-02-19T18:00:54.469Z,100821.30
2019-02-19T18:03:41.305Z,100821.30
2019-02-19T18:06:28.597Z,100828.52
2019-02-19T18:09:14.937Z,100834.51
2019-02-19T18:11:54.156Z,100839.64
2019-02-19T18:14:30.090Z,100837.00
2019-02-19T18:17:17.102Z,100831.28
2019-02-19T18:19:44.817Z,100841.02
2019-02-19T18:22:11.787Z,100841.13
2019-02-19T18:24:39.152Z,100842.76
2019-02-19T18:27:05.818Z,100852.50
2019-02-19T18:29:33.032Z,100857.24
2019-02-19T18:32:00.001Z,100841.13
2019-02-19T18:34:27.305Z,100851.11
2019-02-19T18:36:53.977Z,100856.38
2019-02-19T18:39:21.418Z,100852.98
2019-02-19T18:41:48.687Z,100850.00
2019-02-19T18:44:15.597Z,100854.61
2019-02-19T18:46:43.011Z,100849.23
2019-02-19T18:49:09.660Z,100841.13
2019-02-19T18:51:36.353Z,100858.73
2019-02-19T18:54:03.231Z,100849.38
2019-02-19T18:56:30.991Z,100856.38
2019-02-19T18:58:57.649Z,100857.76
2019-02-19T19:01:25.192Z,100856.75
2019-02-19T19:03:52.812Z,100860.58
2019-02-19T19:06:19.982Z,100866.84
2019-02-19T19:08:47.658Z,100858.98
2019-02-19T19:11:14.823Z,100866.49
2019-02-19T19:13:41.847Z,100855.61
2019-02-19T19:16:10.153Z,100859.25
2019-02-19T19:18:37.788Z,100864.23
2019-02-19T19:21:08.219Z,100869.47
2019-02-19T19:23:36.138Z,100867.36
2019-02-19T19:26:03.378Z,100871.97
2019-02-19T19:28:31.463Z,100873.22
2019-02-19T19:30:58.956Z,100875.72
2019-02-19T19:33:25.614Z,100883.44
2019-02-19T19:35:53.432Z,100886.21
2019-02-19T19:38:21.981Z,100884.44
2019-02-19T19:40:50.611Z,100894.95
2019-02-19T19:43:18.688Z,100891.45
2019-02-19T19:45:46.308Z,100907.53
2019-02-19T19:48:12.972Z,100891.07
2019-02-19T19:50:40.885Z,100888.95
2019-02-19T19:53:07.665Z,100901.67
2019-02-19T19:55:34.712Z,100908.15
2019-02-19T19:58:01.365Z,100896.44
2019-02-19T20:00:28.494Z,100916.88
2019-02-19T20:02:55.893Z,100913.14
2019-02-19T20:05:23.470Z,100913.14
2019-02-19T20:07:51.851Z,100914.41
2019-02-19T20:10:19.701Z,100909.05
2019-02-19T20:12:46.811Z,100920.39
2019-02-19T20:15:13.593Z,100915.17
2019-02-19T20:17:41.381Z,100916.27
2019-02-19T20:20:08.746Z,100921.27
2019-02-19T20:22:35.531Z,100920.38
2019-02-19T20:25:03.769Z,100927.27
2019-02-19T20:27:33.018Z,100922.66
2019-02-19T20:29:59.982Z,100927.38
2019-02-19T20:32:27.863Z,100931.63
2019-02-19T20:34:55.213Z,100923.66
2019-02-19T20:37:22.435Z,100922.27
2019-02-19T20:39:50.416Z,100922.39
2019-02-19T20:42:18.039Z,100923.64
2019-02-19T20:44:46.227Z,100928.89
2019-02-19T20:47:13.606Z,100932.88
2019-02-19T20:49:40.910Z,100926.64
2019-02-19T20:52:08.334Z,100931.86
2019-02-19T20:54:35.670Z,100931.75
2019-02-19T20:57:02.642Z,100926.01
2019-02-19T20:59:30.020Z,100940.11
2019-02-19T21:01:57.761Z,100934.02
2019-02-19T21:04:24.489Z,100931.63
2019-02-19T21:06:51.338Z,100936.74
2019-02-19T21:09:18.669Z,100938.61
2019-02-19T21:11:45.878Z,100936.36
2019-02-19T21:14:14.268Z,100934.61
2019-02-19T21:16:41.882Z,100929.64
2019-02-19T21:19:09.688Z,100930.89
2019-02-19T21:21:44.798Z,100933.88
2019-02-19T21:24:06.601Z,100938.12
2019-02-19T21:26:33.383Z,100940.61
2019-02-19T21:29:00.730Z,100943.86
2019-02-19T21:31:28.029Z,100951.60
2019-02-19T21:33:56.026Z,100951.58
2019-02-19T21:36:22.813Z,100956.06
2019-02-19T21:38:52.428Z,100957.31
2019-02-19T21:41:19.328Z,100967.67
2019-02-19T21:43:47.052Z,100963.08
2019-02-19T21:46:13.974Z,100969.16
2019-02-19T21:48:47.804Z,100968.55
2019-02-19T21:51:10.672Z,100964.32
2019-02-19T21:53:37.880Z,100966.81
2019-02-19T21:56:05.766Z,100962.95
2019-02-19T21:58:34.165Z,100963.08
2019-02-19T22:01:01.643Z,100955.95
2019-02-19T22:03:30.086Z,100959.20
2019-02-19T22:05:57.646Z,100957.19
2019-02-19T22:08:24.907Z,100957.06
2019-02-19T22:10:53.836Z,100954.82
2019-02-19T22:13:21.153Z,100954.71
2019-02-19T22:15:48.202Z,100952.07
2019-02-19T22:18:14.913Z,100956.34
2019-02-19T22:20:52.806Z,100953.84
2019-02-19T22:23:20.531Z,100947.08
2019-02-19T22:25:48.052Z,100957.81
2019-02-19T22:28:17.516Z,100949.84
2019-02-19T22:30:44.439Z,100951.58
2019-02-19T22:33:11.643Z,100955.33
2019-02-19T22:35:38.564Z,100953.09
2019-02-19T22:38:06.089Z,100952.58
2019-02-19T22:40:33.924Z,100960.56
2019-02-19T22:43:01.588Z,100950.60
2019-02-19T22:45:29.860Z,100953.83
2019-02-19T22:47:56.808Z,100956.08
2019-02-19T22:50:23.584Z,100947.86
2019-02-19T22:52:52.305Z,100954.34
2019-02-19T22:55:53.705Z,100957.81
2019-02-19T22:58:23.505Z,100954.34
2019-02-19T23:01:10.151Z,100958.07
2019-02-19T23:03:38.648Z,100961.33
2019-02-19T23:06:07.386Z,100959.43
2019-02-19T23:08:34.629Z,100967.04
2019-02-19T23:11:02.669Z,100965.55
2019-02-19T23:13:29.584Z,100966.80
2019-02-19T23:15:56.698Z,100964.30
2019-02-19T23:18:24.231Z,100978.39
2019-02-19T23:20:51.608Z,100978.39
2019-02-19T23:23:19.675Z,100979.91
2019-02-19T23:25:46.627Z,100972.92
2019-02-19T23:28:13.966Z,100978.78
2019-02-19T23:30:41.216Z,100976.02
2019-02-19T23:33:08.742Z,100973.53
2019-02-19T23:35:43.495Z,100976.14
2019-02-19T23:38:12.196Z,100981.26
2019-02-19T23:40:39.457Z,100985.52
2019-02-19T23:43:07.205Z,100985.63
2019-02-19T23:45:34.473Z,100984.77
2019-02-19T23:48:01.613Z,100985.25
2019-02-19T23:50:28.508Z,100988.99
2019-02-19T23:52:55.249Z,100987.49
2019-02-19T23:55:23.162Z,100995.98
2019-02-19T23:57:50.519Z,100990.74
